sensor_id;sensor_type;location;lat;lon;timestamp;temperature;humidity
80279;DHT22;70683;52.492;13.416;2024-03-02T00:01:27;11.50;90.40
80279;DHT22;70683;52.492;13.416;2024-03-02T00:03:54;11.50;90.40
80279;DHT22;70683;52.492;13.416;2024-03-02T00:06:21;11.60;90.50
80279;DHT22;70683;52.492;13.416;2024-03-02T00:08:48;11.60;90.40
80279;DHT22;70683;52.492;13.416;2024-03-02T00:11:15;11.60;90.40
80279;DHT22;70683;52.492;13.416;2024-03-02T00:13:42;11.60;90.40
80279;DHT22;70683;52.492;13.416;2024-03-02T00:16:09;11.60;90.50
80279;DHT22;70683;52.492;13.416;2024-03-02T00:18:37;11.60;90.40
80279;DHT22;70683;52.492;13.416;2024-03-02T00:21:06;11.60;90.30
80279;DHT22;70683;52.492;13.416;2024-03-02T00:23:35;11.70;90.30
80279;DHT22;70683;52.492;13.416;2024-03-02T00:26:02;11.70;90.20
80279;DHT22;70683;52.492;13.416;2024-03-02T00:28:35;11.70;90.20
80279;DHT22;70683;52.492;13.416;2024-03-02T00:31:06;11.70;90.20
80279;DHT22;70683;52.492;13.416;2024-03-02T00:33:34;11.70;90.20
80279;DHT22;70683;52.492;13.416;2024-03-02T00:36:03;11.80;90.10
80279;DHT22;70683;52.492;13.416;2024-03-02T00:38:31;11.70;90.20
80279;DHT22;70683;52.492;13.416;2024-03-02T00:40:59;11.80;90.20
80279;DHT22;70683;52.492;13.416;2024-03-02T00:43:43;11.70;90.30
80279;DHT22;70683;52.492;13.416;2024-03-02T00:46:12;11.70;90.40
80279;DHT22;70683;52.492;13.416;2024-03-02T00:48:46;11.70;90.40
80279;DHT22;70683;52.492;13.416;2024-03-02T00:51:10;11.80;90.40
80279;DHT22;70683;52.492;13.416;2024-03-02T00:53:37;11.70;90.50
80279;DHT22;70683;52.492;13.416;2024-03-02T00:56:09;11.80;90.50
80279;DHT22;70683;52.492;13.416;2024-03-02T00:58:35;11.80;90.40
80279;DHT22;70683;52.492;13.416;2024-03-02T01:01:01;11.70;90.60
80279;DHT22;70683;52.492;13.416;2024-03-02T01:03:28;11.60;90.60
80279;DHT22;70683;52.492;13.416;2024-03-02T01:05:55;11.70;90.80
80279;DHT22;70683;52.492;13.416;2024-03-02T01:08:21;11.60;90.80
80279;DHT22;70683;52.492;13.416;2024-03-02T01:10:48;11.60;91.00
80279;DHT22;70683;52.492;13.416;2024-03-02T01:13:15;11.50;91.10
80279;DHT22;70683;52.492;13.416;2024-03-02T01:15:41;11.50;91.30
80279;DHT22;70683;52.492;13.416;2024-03-02T01:18:08;11.40;91.40
80279;DHT22;70683;52.492;13.416;2024-03-02T01:20:34;11.50;91.40
80279;DHT22;70683;52.492;13.416;2024-03-02T01:23:01;11.40;91.60
80279;DHT22;70683;52.492;13.416;2024-03-02T01:25:28;11.30;91.80
80279;DHT22;70683;52.492;13.416;2024-03-02T01:27:55;11.30;92.00
80279;DHT22;70683;52.492;13.416;2024-03-02T01:30:21;11.30;92.00
80279;DHT22;70683;52.492;13.416;2024-03-02T01:32:48;11.30;92.10
80279;DHT22;70683;52.492;13.416;2024-03-02T01:35:16;11.30;92.20
80279;DHT22;70683;52.492;13.416;2024-03-02T01:37:43;11.30;92.30
80279;DHT22;70683;52.492;13.416;2024-03-02T01:40:10;11.30;92.40
80279;DHT22;70683;52.492;13.416;2024-03-02T01:42:38;11.30;92.50
80279;DHT22;70683;52.492;13.416;2024-03-02T01:45:06;11.20;92.70
80279;DHT22;70683;52.492;13.416;2024-03-02T01:47:33;11.10;92.80
80279;DHT22;70683;52.492;13.416;2024-03-02T01:50:00;11.10;92.90
80279;DHT22;70683;52.492;13.416;2024-03-02T01:52:27;11.20;93.00
80279;DHT22;70683;52.492;13.416;2024-03-02T01:54:55;11.20;93.10
80279;DHT22;70683;52.492;13.416;2024-03-02T01:57:22;11.20;93.00
80279;DHT22;70683;52.492;13.416;2024-03-02T01:59:49;11.20;93.00
80279;DHT22;70683;52.492;13.416;2024-03-02T02:02:17;11.20;93.10
80279;DHT22;70683;52.492;13.416;2024-03-02T02:04:43;11.10;93.30
80279;DHT22;70683;52.492;13.416;2024-03-02T02:07:10;11.10;93.30
80279;DHT22;70683;52.492;13.416;2024-03-02T02:09:37;11.10;93.40
80279;DHT22;70683;52.492;13.416;2024-03-02T02:12:04;11.10;93.50
80279;DHT22;70683;52.492;13.416;2024-03-02T02:14:32;11.10;93.60
80279;DHT22;70683;52.492;13.416;2024-03-02T02:16:59;11.10;93.70
80279;DHT22;70683;52.492;13.416;2024-03-02T02:19:26;11.00;93.70
80279;DHT22;70683;52.492;13.416;2024-03-02T02:21:53;11.10;94.10
80279;DHT22;70683;52.492;13.416;2024-03-02T02:24:19;11.10;93.90
80279;DHT22;70683;52.492;13.416;2024-03-02T02:26:46;11.10;93.90
80279;DHT22;70683;52.492;13.416;2024-03-02T02:29:12;11.00;94.00
80279;DHT22;70683;52.492;13.416;2024-03-02T02:31:40;11.00;94.10
80279;DHT22;70683;52.492;13.416;2024-03-02T02:34:08;11.00;94.10
80279;DHT22;70683;52.492;13.416;2024-03-02T02:36:37;11.00;94.20
80279;DHT22;70683;52.492;13.416;2024-03-02T02:39:07;11.00;94.30
80279;DHT22;70683;52.492;13.416;2024-03-02T02:41:36;11.00;94.30
80279;DHT22;70683;52.492;13.416;2024-03-02T02:44:03;11.00;94.30
80279;DHT22;70683;52.492;13.416;2024-03-02T02:46:30;11.00;94.40
80279;DHT22;70683;52.492;13.416;2024-03-02T02:48:57;10.90;94.40
80279;DHT22;70683;52.492;13.416;2024-03-02T02:51:23;10.90;94.60
80279;DHT22;70683;52.492;13.416;2024-03-02T02:53:51;10.90;94.70
80279;DHT22;70683;52.492;13.416;2024-03-02T02:56:18;10.90;94.60
80279;DHT22;70683;52.492;13.416;2024-03-02T02:58:44;10.90;94.80
80279;DHT22;70683;52.492;13.416;2024-03-02T03:01:11;11.00;94.80
80279;DHT22;70683;52.492;13.416;2024-03-02T03:03:38;11.00;94.70
80279;DHT22;70683;52.492;13.416;2024-03-02T03:06:04;11.00;94.80
80279;DHT22;70683;52.492;13.416;2024-03-02T03:08:31;11.00;94.80
80279;DHT22;70683;52.492;13.416;2024-03-02T03:10:58;11.00;95.20
80279;DHT22;70683;52.492;13.416;2024-03-02T03:13:24;11.10;94.90
80279;DHT22;70683;52.492;13.416;2024-03-02T03:15:51;11.10;94.90
80279;DHT22;70683;52.492;13.416;2024-03-02T03:18:18;11.10;94.80
80279;DHT22;70683;52.492;13.416;2024-03-02T03:20:45;11.10;94.80
80279;DHT22;70683;52.492;13.416;2024-03-02T03:23:12;11.00;95.00
80279;DHT22;70683;52.492;13.416;2024-03-02T03:25:41;11.00;95.10
80279;DHT22;70683;52.492;13.416;2024-03-02T03:28:08;11.00;95.20
80279;DHT22;70683;52.492;13.416;2024-03-02T03:30:38;11.10;95.20
80279;DHT22;70683;52.492;13.416;2024-03-02T03:33:05;11.10;95.20
80279;DHT22;70683;52.492;13.416;2024-03-02T03:35:32;11.10;95.20
80279;DHT22;70683;52.492;13.416;2024-03-02T03:37:59;11.10;95.30
80279;DHT22;70683;52.492;13.416;2024-03-02T03:40:26;11.10;95.30
80279;DHT22;70683;52.492;13.416;2024-03-02T03:42:53;11.20;95.30
80279;DHT22;70683;52.492;13.416;2024-03-02T03:45:22;11.20;95.40
80279;DHT22;70683;52.492;13.416;2024-03-02T03:47:48;11.20;95.30
80279;DHT22;70683;52.492;13.416;2024-03-02T03:50:15;11.20;95.40
80279;DHT22;70683;52.492;13.416;2024-03-02T03:52:42;11.20;95.20
80279;DHT22;70683;52.492;13.416;2024-03-02T03:55:09;11.20;95.20
80279;DHT22;70683;52.492;13.416;2024-03-02T03:57:36;11.30;95.20
80279;DHT22;70683;52.492;13.416;2024-03-02T04:00:03;11.30;95.30
80279;DHT22;70683;52.492;13.416;2024-03-02T04:02:30;11.30;95.10
80279;DHT22;70683;52.492;13.416;2024-03-02T04:04:57;11.40;94.90
80279;DHT22;70683;52.492;13.416;2024-03-02T04:07:23;11.50;94.90
80279;DHT22;70683;52.492;13.416;2024-03-02T04:09:50;11.40;94.80
80279;DHT22;70683;52.492;13.416;2024-03-02T04:12:16;11.50;94.80
80279;DHT22;70683;52.492;13.416;2024-03-02T04:14:43;11.50;94.60
80279;DHT22;70683;52.492;13.416;2024-03-02T04:17:10;11.40;94.80
80279;DHT22;70683;52.492;13.416;2024-03-02T04:19:36;11.40;95.00
80279;DHT22;70683;52.492;13.416;2024-03-02T04:22:03;11.40;94.90
80279;DHT22;70683;52.492;13.416;2024-03-02T04:24:30;11.40;94.90
80279;DHT22;70683;52.492;13.416;2024-03-02T04:26:56;11.40;95.00
80279;DHT22;70683;52.492;13.416;2024-03-02T04:29:23;11.40;95.00
80279;DHT22;70683;52.492;13.416;2024-03-02T04:31:49;11.40;94.90
80279;DHT22;70683;52.492;13.416;2024-03-02T04:34:16;11.40;95.10
80279;DHT22;70683;52.492;13.416;2024-03-02T04:36:43;11.40;95.10
80279;DHT22;70683;52.492;13.416;2024-03-02T04:39:09;11.40;95.00
80279;DHT22;70683;52.492;13.416;2024-03-02T04:41:36;11.40;95.10
80279;DHT22;70683;52.492;13.416;2024-03-02T04:44:02;11.40;95.20
80279;DHT22;70683;52.492;13.416;2024-03-02T04:46:29;11.40;95.10
80279;DHT22;70683;52.492;13.416;2024-03-02T04:48:56;11.40;95.30
80279;DHT22;70683;52.492;13.416;2024-03-02T04:51:23;11.40;95.30
80279;DHT22;70683;52.492;13.416;2024-03-02T04:53:49;11.40;95.10
80279;DHT22;70683;52.492;13.416;2024-03-02T04:56:16;11.40;95.20
80279;DHT22;70683;52.492;13.416;2024-03-02T04:58:57;11.40;95.20
80279;DHT22;70683;52.492;13.416;2024-03-02T05:01:24;11.40;95.30
80279;DHT22;70683;52.492;13.416;2024-03-02T05:03:51;11.40;95.30
80279;DHT22;70683;52.492;13.416;2024-03-02T05:06:17;11.30;95.50
80279;DHT22;70683;52.492;13.416;2024-03-02T05:08:44;11.30;95.40
80279;DHT22;70683;52.492;13.416;2024-03-02T05:11:11;11.30;95.50
80279;DHT22;70683;52.492;13.416;2024-03-02T05:14:00;11.30;95.60
80279;DHT22;70683;52.492;13.416;2024-03-02T05:16:27;11.40;95.60
80279;DHT22;70683;52.492;13.416;2024-03-02T05:18:54;11.30;95.70
80279;DHT22;70683;52.492;13.416;2024-03-02T05:21:20;11.30;95.80
80279;DHT22;70683;52.492;13.416;2024-03-02T05:23:47;11.30;95.70
80279;DHT22;70683;52.492;13.416;2024-03-02T05:26:13;11.50;95.50
80279;DHT22;70683;52.492;13.416;2024-03-02T05:28:40;11.50;95.30
80279;DHT22;70683;52.492;13.416;2024-03-02T05:31:10;11.50;95.30
80279;DHT22;70683;52.492;13.416;2024-03-02T05:33:37;11.40;95.40
80279;DHT22;70683;52.492;13.416;2024-03-02T05:36:04;11.40;95.30
80279;DHT22;70683;52.492;13.416;2024-03-02T05:38:31;11.50;95.10
80279;DHT22;70683;52.492;13.416;2024-03-02T05:40:57;11.30;95.30
80279;DHT22;70683;52.492;13.416;2024-03-02T05:43:24;11.30;95.50
80279;DHT22;70683;52.492;13.416;2024-03-02T05:45:51;11.20;95.50
80279;DHT22;70683;52.492;13.416;2024-03-02T05:48:17;11.20;95.70
80279;DHT22;70683;52.492;13.416;2024-03-02T05:50:44;11.20;95.80
80279;DHT22;70683;52.492;13.416;2024-03-02T05:53:10;11.20;95.90
80279;DHT22;70683;52.492;13.416;2024-03-02T05:55:37;11.10;95.80
80279;DHT22;70683;52.492;13.416;2024-03-02T05:58:04;11.20;95.70
80279;DHT22;70683;52.492;13.416;2024-03-02T06:00:49;11.20;95.80
80279;DHT22;70683;52.492;13.416;2024-03-02T06:03:16;11.10;95.80
80279;DHT22;70683;52.492;13.416;2024-03-02T06:05:42;11.10;95.80
80279;DHT22;70683;52.492;13.416;2024-03-02T06:08:09;11.20;95.70
80279;DHT22;70683;52.492;13.416;2024-03-02T06:10:36;11.20;95.70
80279;DHT22;70683;52.492;13.416;2024-03-02T06:13:03;11.20;95.50
80279;DHT22;70683;52.492;13.416;2024-03-02T06:15:29;11.20;95.40
80279;DHT22;70683;52.492;13.416;2024-03-02T06:17:56;11.30;95.40
80279;DHT22;70683;52.492;13.416;2024-03-02T06:20:23;11.20;95.40
80279;DHT22;70683;52.492;13.416;2024-03-02T06:22:50;11.20;95.40
80279;DHT22;70683;52.492;13.416;2024-03-02T06:25:16;11.20;95.30
80279;DHT22;70683;52.492;13.416;2024-03-02T06:27:43;11.30;95.30
80279;DHT22;70683;52.492;13.416;2024-03-02T06:30:10;11.30;95.20
80279;DHT22;70683;52.492;13.416;2024-03-02T06:32:37;11.30;95.10
80279;DHT22;70683;52.492;13.416;2024-03-02T06:35:04;11.30;94.90
80279;DHT22;70683;52.492;13.416;2024-03-02T06:37:33;11.30;94.80
80279;DHT22;70683;52.492;13.416;2024-03-02T06:39:59;11.30;94.80
80279;DHT22;70683;52.492;13.416;2024-03-02T06:42:26;11.30;94.80
80279;DHT22;70683;52.492;13.416;2024-03-02T06:44:53;11.40;94.70
80279;DHT22;70683;52.492;13.416;2024-03-02T06:47:20;11.40;94.60
80279;DHT22;70683;52.492;13.416;2024-03-02T06:49:47;11.40;94.60
80279;DHT22;70683;52.492;13.416;2024-03-02T06:52:13;11.40;94.50
80279;DHT22;70683;52.492;13.416;2024-03-02T06:54:40;11.50;94.40
80279;DHT22;70683;52.492;13.416;2024-03-02T06:57:06;11.50;94.30
80279;DHT22;70683;52.492;13.416;2024-03-02T06:59:33;11.50;94.20
80279;DHT22;70683;52.492;13.416;2024-03-02T07:01:59;11.50;94.10
80279;DHT22;70683;52.492;13.416;2024-03-02T07:04:27;11.40;94.10
80279;DHT22;70683;52.492;13.416;2024-03-02T07:06:54;11.40;94.10
80279;DHT22;70683;52.492;13.416;2024-03-02T07:09:21;11.40;94.20
80279;DHT22;70683;52.492;13.416;2024-03-02T07:11:49;11.50;94.00
80279;DHT22;70683;52.492;13.416;2024-03-02T07:14:15;11.50;93.90
80279;DHT22;70683;52.492;13.416;2024-03-02T07:16:42;11.40;94.10
80279;DHT22;70683;52.492;13.416;2024-03-02T07:19:09;11.40;93.90
80279;DHT22;70683;52.492;13.416;2024-03-02T07:21:36;11.40;94.00
80279;DHT22;70683;52.492;13.416;2024-03-02T07:24:02;11.40;94.00
80279;DHT22;70683;52.492;13.416;2024-03-02T07:26:30;11.40;94.20
80279;DHT22;70683;52.492;13.416;2024-03-02T07:28:57;11.40;93.90
80279;DHT22;70683;52.492;13.416;2024-03-02T07:31:24;11.50;93.80
80279;DHT22;70683;52.492;13.416;2024-03-02T07:33:51;11.50;93.60
80279;DHT22;70683;52.492;13.416;2024-03-02T07:36:18;11.50;93.50
80279;DHT22;70683;52.492;13.416;2024-03-02T07:38:45;11.50;93.50
80279;DHT22;70683;52.492;13.416;2024-03-02T07:41:12;11.50;93.40
80279;DHT22;70683;52.492;13.416;2024-03-02T07:43:39;11.50;93.50
80279;DHT22;70683;52.492;13.416;2024-03-02T07:46:06;11.60;93.50
80279;DHT22;70683;52.492;13.416;2024-03-02T07:48:33;11.60;93.70
80279;DHT22;70683;52.492;13.416;2024-03-02T07:51:00;11.70;93.30
80279;DHT22;70683;52.492;13.416;2024-03-02T07:53:28;11.70;92.90
80279;DHT22;70683;52.492;13.416;2024-03-02T07:55:54;11.70;92.80
80279;DHT22;70683;52.492;13.416;2024-03-02T07:58:23;11.70;92.90
80279;DHT22;70683;52.492;13.416;2024-03-02T08:00:49;11.70;92.90
80279;DHT22;70683;52.492;13.416;2024-03-02T08:03:16;11.70;92.90
80279;DHT22;70683;52.492;13.416;2024-03-02T08:05:44;11.80;92.70
80279;DHT22;70683;52.492;13.416;2024-03-02T08:08:10;11.70;93.00
80279;DHT22;70683;52.492;13.416;2024-03-02T08:10:37;11.60;93.30
80279;DHT22;70683;52.492;13.416;2024-03-02T08:13:04;11.60;93.40
80279;DHT22;70683;52.492;13.416;2024-03-02T08:15:31;11.60;93.40
80279;DHT22;70683;52.492;13.416;2024-03-02T08:17:57;11.60;93.20
80279;DHT22;70683;52.492;13.416;2024-03-02T08:20:24;11.50;93.20
80279;DHT22;70683;52.492;13.416;2024-03-02T08:22:51;11.50;93.40
80279;DHT22;70683;52.492;13.416;2024-03-02T08:25:20;11.50;93.50
80279;DHT22;70683;52.492;13.416;2024-03-02T08:27:46;11.40;93.70
80279;DHT22;70683;52.492;13.416;2024-03-02T08:30:13;11.50;93.70
80279;DHT22;70683;52.492;13.416;2024-03-02T08:32:40;11.60;93.60
80279;DHT22;70683;52.492;13.416;2024-03-02T08:35:07;11.60;93.50
80279;DHT22;70683;52.492;13.416;2024-03-02T08:37:33;11.70;93.30
80279;DHT22;70683;52.492;13.416;2024-03-02T08:40:01;11.70;92.90
80279;DHT22;70683;52.492;13.416;2024-03-02T08:42:30;11.70;93.00
80279;DHT22;70683;52.492;13.416;2024-03-02T08:44:56;11.70;92.70
80279;DHT22;70683;52.492;13.416;2024-03-02T08:47:23;11.70;92.50
80279;DHT22;70683;52.492;13.416;2024-03-02T08:49:50;11.70;92.60
80279;DHT22;70683;52.492;13.416;2024-03-02T08:52:17;11.70;92.50
80279;DHT22;70683;52.492;13.416;2024-03-02T08:54:43;11.70;92.60
80279;DHT22;70683;52.492;13.416;2024-03-02T08:57:10;11.70;92.60
80279;DHT22;70683;52.492;13.416;2024-03-02T08:59:37;11.70;92.70
80279;DHT22;70683;52.492;13.416;2024-03-02T09:02:04;11.60;92.80
80279;DHT22;70683;52.492;13.416;2024-03-02T09:04:30;11.60;93.00
80279;DHT22;70683;52.492;13.416;2024-03-02T09:06:57;11.80;92.70
80279;DHT22;70683;52.492;13.416;2024-03-02T09:09:23;11.80;92.30
80279;DHT22;70683;52.492;13.416;2024-03-02T09:11:50;11.80;92.20
80279;DHT22;70683;52.492;13.416;2024-03-02T09:14:17;11.90;92.20
80279;DHT22;70683;52.492;13.416;2024-03-02T09:16:43;11.90;92.20
80279;DHT22;70683;52.492;13.416;2024-03-02T09:19:10;12.00;92.10
80279;DHT22;70683;52.492;13.416;2024-03-02T09:21:37;12.00;92.10
80279;DHT22;70683;52.492;13.416;2024-03-02T09:24:04;12.00;92.20
80279;DHT22;70683;52.492;13.416;2024-03-02T09:26:32;12.00;92.30
80279;DHT22;70683;52.492;13.416;2024-03-02T09:28:59;12.10;92.20
80279;DHT22;70683;52.492;13.416;2024-03-02T09:31:25;12.20;92.00
80279;DHT22;70683;52.492;13.416;2024-03-02T09:33:52;12.20;91.90
80279;DHT22;70683;52.492;13.416;2024-03-02T09:36:21;12.20;91.90
80279;DHT22;70683;52.492;13.416;2024-03-02T09:38:48;12.30;91.60
80279;DHT22;70683;52.492;13.416;2024-03-02T09:41:15;12.40;91.40
80279;DHT22;70683;52.492;13.416;2024-03-02T09:43:42;12.50;91.30
80279;DHT22;70683;52.492;13.416;2024-03-02T09:46:10;12.60;91.40
80279;DHT22;70683;52.492;13.416;2024-03-02T09:48:37;12.70;91.20
80279;DHT22;70683;52.492;13.416;2024-03-02T09:51:05;12.90;90.90
80279;DHT22;70683;52.492;13.416;2024-03-02T09:53:32;13.10;90.60
80279;DHT22;70683;52.492;13.416;2024-03-02T09:56:00;13.20;90.30
80279;DHT22;70683;52.492;13.416;2024-03-02T09:58:27;13.40;89.80
80279;DHT22;70683;52.492;13.416;2024-03-02T10:00:54;13.50;89.20
80279;DHT22;70683;52.492;13.416;2024-03-02T10:03:22;13.60;88.70
80279;DHT22;70683;52.492;13.416;2024-03-02T10:05:50;13.60;88.60
80279;DHT22;70683;52.492;13.416;2024-03-02T10:08:17;13.70;88.00
80279;DHT22;70683;52.492;13.416;2024-03-02T10:10:44;13.80;87.80
80279;DHT22;70683;52.492;13.416;2024-03-02T10:13:11;14.00;87.50
80279;DHT22;70683;52.492;13.416;2024-03-02T10:15:40;14.30;85.40
80279;DHT22;70683;52.492;13.416;2024-03-02T10:18:09;14.40;84.00
80279;DHT22;70683;52.492;13.416;2024-03-02T10:20:40;14.40;82.50
80279;DHT22;70683;52.492;13.416;2024-03-02T10:23:14;14.40;83.20
80279;DHT22;70683;52.492;13.416;2024-03-02T10:25:43;14.40;83.30
80279;DHT22;70683;52.492;13.416;2024-03-02T10:28:10;14.50;82.70
80279;DHT22;70683;52.492;13.416;2024-03-02T10:30:36;14.60;82.10
80279;DHT22;70683;52.492;13.416;2024-03-02T10:33:05;14.60;82.20
80279;DHT22;70683;52.492;13.416;2024-03-02T10:35:32;14.60;82.20
80279;DHT22;70683;52.492;13.416;2024-03-02T10:38:03;14.70;81.70
80279;DHT22;70683;52.492;13.416;2024-03-02T10:40:32;14.80;80.70
80279;DHT22;70683;52.492;13.416;2024-03-02T10:43:01;14.80;80.60
80279;DHT22;70683;52.492;13.416;2024-03-02T10:45:29;14.80;80.40
80279;DHT22;70683;52.492;13.416;2024-03-02T10:47:56;14.90;79.60
80279;DHT22;70683;52.492;13.416;2024-03-02T10:50:24;14.80;79.30
80279;DHT22;70683;52.492;13.416;2024-03-02T10:52:51;14.90;79.40
80279;DHT22;70683;52.492;13.416;2024-03-02T10:55:18;15.00;79.30
80279;DHT22;70683;52.492;13.416;2024-03-02T10:57:54;15.00;78.70
80279;DHT22;70683;52.492;13.416;2024-03-02T11:00:25;15.10;77.80
80279;DHT22;70683;52.492;13.416;2024-03-02T11:02:57;15.00;76.90
80279;DHT22;70683;52.492;13.416;2024-03-02T11:05:28;15.00;77.60
80279;DHT22;70683;52.492;13.416;2024-03-02T11:08:00;15.00;77.50
80279;DHT22;70683;52.492;13.416;2024-03-02T11:10:34;15.10;77.30
80279;DHT22;70683;52.492;13.416;2024-03-02T11:13:05;15.10;76.50
80279;DHT22;70683;52.492;13.416;2024-03-02T11:15:34;15.20;76.40
80279;DHT22;70683;52.492;13.416;2024-03-02T11:18:04;15.30;76.00
80279;DHT22;70683;52.492;13.416;2024-03-02T11:20:36;15.30;75.70
80279;DHT22;70683;52.492;13.416;2024-03-02T11:23:05;15.30;75.60
80279;DHT22;70683;52.492;13.416;2024-03-02T11:25:32;15.40;76.00
80279;DHT22;70683;52.492;13.416;2024-03-02T11:28:01;15.40;75.20
80279;DHT22;70683;52.492;13.416;2024-03-02T11:30:49;15.50;75.60
80279;DHT22;70683;52.492;13.416;2024-03-02T11:33:22;15.70;74.20
80279;DHT22;70683;52.492;13.416;2024-03-02T11:35:47;15.80;73.50
80279;DHT22;70683;52.492;13.416;2024-03-02T11:38:14;15.70;72.70
80279;DHT22;70683;52.492;13.416;2024-03-02T11:40:41;15.70;72.80
80279;DHT22;70683;52.492;13.416;2024-03-02T11:43:07;15.70;71.80
80279;DHT22;70683;52.492;13.416;2024-03-02T11:45:36;15.80;71.80
80279;DHT22;70683;52.492;13.416;2024-03-02T11:48:06;15.90;71.90
80279;DHT22;70683;52.492;13.416;2024-03-02T11:50:36;16.10;71.40
80279;DHT22;70683;52.492;13.416;2024-03-02T11:53:05;16.20;70.00
80279;DHT22;70683;52.492;13.416;2024-03-02T11:55:35;16.20;69.50
80279;DHT22;70683;52.492;13.416;2024-03-02T11:58:03;16.00;69.60
80279;DHT22;70683;52.492;13.416;2024-03-02T12:00:30;15.90;69.80
80279;DHT22;70683;52.492;13.416;2024-03-02T12:03:05;15.90;69.70
80279;DHT22;70683;52.492;13.416;2024-03-02T12:05:32;15.90;70.70
80279;DHT22;70683;52.492;13.416;2024-03-02T12:08:02;16.00;70.50
80279;DHT22;70683;52.492;13.416;2024-03-02T12:10:30;16.10;70.50
80279;DHT22;70683;52.492;13.416;2024-03-02T12:13:00;16.20;70.00
80279;DHT22;70683;52.492;13.416;2024-03-02T12:15:30;16.30;70.70
80279;DHT22;70683;52.492;13.416;2024-03-02T12:17:59;16.40;68.80
80279;DHT22;70683;52.492;13.416;2024-03-02T12:20:28;16.30;69.60
80279;DHT22;70683;52.492;13.416;2024-03-02T12:22:59;16.40;69.80
80279;DHT22;70683;52.492;13.416;2024-03-02T12:25:26;16.40;70.20
80279;DHT22;70683;52.492;13.416;2024-03-02T12:27:55;16.60;69.70
80279;DHT22;70683;52.492;13.416;2024-03-02T12:30:23;16.70;69.40
80279;DHT22;70683;52.492;13.416;2024-03-02T12:32:50;16.70;68.30
80279;DHT22;70683;52.492;13.416;2024-03-02T12:35:18;16.70;67.40
80279;DHT22;70683;52.492;13.416;2024-03-02T12:37:45;16.80;67.60
80279;DHT22;70683;52.492;13.416;2024-03-02T12:40:14;16.90;68.10
80279;DHT22;70683;52.492;13.416;2024-03-02T12:42:41;16.90;68.10
80279;DHT22;70683;52.492;13.416;2024-03-02T12:45:08;17.00;66.80
80279;DHT22;70683;52.492;13.416;2024-03-02T12:47:36;17.00;67.10
80279;DHT22;70683;52.492;13.416;2024-03-02T12:50:03;17.10;66.90
80279;DHT22;70683;52.492;13.416;2024-03-02T12:52:31;17.20;66.30
80279;DHT22;70683;52.492;13.416;2024-03-02T12:55:01;17.30;66.50
80279;DHT22;70683;52.492;13.416;2024-03-02T12:57:32;17.50;66.30
80279;DHT22;70683;52.492;13.416;2024-03-02T12:59:59;17.60;64.40
80279;DHT22;70683;52.492;13.416;2024-03-02T13:02:28;17.70;64.00
80279;DHT22;70683;52.492;13.416;2024-03-02T13:04:56;17.70;63.40
80279;DHT22;70683;52.492;13.416;2024-03-02T13:07:25;17.70;63.60
80279;DHT22;70683;52.492;13.416;2024-03-02T13:09:52;17.80;63.50
80279;DHT22;70683;52.492;13.416;2024-03-02T13:12:22;17.90;62.70
80279;DHT22;70683;52.492;13.416;2024-03-02T13:14:51;18.00;62.30
80279;DHT22;70683;52.492;13.416;2024-03-02T13:17:18;18.10;62.30
80279;DHT22;70683;52.492;13.416;2024-03-02T13:19:53;18.10;62.10
80279;DHT22;70683;52.492;13.416;2024-03-02T13:22:21;18.10;61.90
80279;DHT22;70683;52.492;13.416;2024-03-02T13:24:49;18.20;61.40
80279;DHT22;70683;52.492;13.416;2024-03-02T13:27:16;18.10;61.50
80279;DHT22;70683;52.492;13.416;2024-03-02T13:29:46;18.00;61.50
80279;DHT22;70683;52.492;13.416;2024-03-02T13:32:15;17.90;61.70
80279;DHT22;70683;52.492;13.416;2024-03-02T13:34:42;17.90;61.70
80279;DHT22;70683;52.492;13.416;2024-03-02T13:37:09;17.90;61.30
80279;DHT22;70683;52.492;13.416;2024-03-02T13:39:36;17.90;60.90
80279;DHT22;70683;52.492;13.416;2024-03-02T13:42:08;17.70;60.00
80279;DHT22;70683;52.492;13.416;2024-03-02T13:44:36;17.60;59.90
80279;DHT22;70683;52.492;13.416;2024-03-02T13:47:04;17.50;60.70
80279;DHT22;70683;52.492;13.416;2024-03-02T13:49:31;17.40;61.10
80279;DHT22;70683;52.492;13.416;2024-03-02T13:52:02;17.40;61.60
80279;DHT22;70683;52.492;13.416;2024-03-02T13:54:31;17.30;59.80
80279;DHT22;70683;52.492;13.416;2024-03-02T13:56:58;17.20;59.90
80279;DHT22;70683;52.492;13.416;2024-03-02T13:59:25;17.10;60.80
80279;DHT22;70683;52.492;13.416;2024-03-02T14:01:52;17.10;61.60
80279;DHT22;70683;52.492;13.416;2024-03-02T14:04:19;17.00;61.30
80279;DHT22;70683;52.492;13.416;2024-03-02T14:06:46;17.00;62.60
80279;DHT22;70683;52.492;13.416;2024-03-02T14:09:13;16.90;62.60
80279;DHT22;70683;52.492;13.416;2024-03-02T14:11:40;16.90;61.90
80279;DHT22;70683;52.492;13.416;2024-03-02T14:14:07;16.90;62.00
80279;DHT22;70683;52.492;13.416;2024-03-02T14:16:34;16.90;62.60
80279;DHT22;70683;52.492;13.416;2024-03-02T14:19:00;16.90;62.10
80279;DHT22;70683;52.492;13.416;2024-03-02T14:21:27;16.80;62.60
80279;DHT22;70683;52.492;13.416;2024-03-02T14:23:54;16.80;63.40
80279;DHT22;70683;52.492;13.416;2024-03-02T14:26:21;16.80;63.30
80279;DHT22;70683;52.492;13.416;2024-03-02T14:28:48;16.80;61.80
80279;DHT22;70683;52.492;13.416;2024-03-02T14:31:14;16.80;62.50
80279;DHT22;70683;52.492;13.416;2024-03-02T14:33:41;16.80;62.70
80279;DHT22;70683;52.492;13.416;2024-03-02T14:36:08;16.70;63.20
80279;DHT22;70683;52.492;13.416;2024-03-02T14:38:35;16.70;63.30
80279;DHT22;70683;52.492;13.416;2024-03-02T14:41:01;16.70;63.20
80279;DHT22;70683;52.492;13.416;2024-03-02T14:43:29;16.70;63.20
80279;DHT22;70683;52.492;13.416;2024-03-02T14:45:56;16.70;63.40
80279;DHT22;70683;52.492;13.416;2024-03-02T14:48:25;16.60;63.20
80279;DHT22;70683;52.492;13.416;2024-03-02T14:50:52;16.60;63.40
80279;DHT22;70683;52.492;13.416;2024-03-02T14:53:19;16.50;63.90
80279;DHT22;70683;52.492;13.416;2024-03-02T14:55:45;16.40;63.60
80279;DHT22;70683;52.492;13.416;2024-03-02T14:58:12;16.30;65.00
80279;DHT22;70683;52.492;13.416;2024-03-02T15:00:38;16.20;65.50
80279;DHT22;70683;52.492;13.416;2024-03-02T15:03:05;16.20;65.80
80279;DHT22;70683;52.492;13.416;2024-03-02T15:05:35;16.20;64.90
80279;DHT22;70683;52.492;13.416;2024-03-02T15:08:01;16.10;64.90
80279;DHT22;70683;52.492;13.416;2024-03-02T15:10:30;16.10;66.40
80279;DHT22;70683;52.492;13.416;2024-03-02T15:12:58;16.00;66.00
80279;DHT22;70683;52.492;13.416;2024-03-02T15:15:24;16.00;64.90
80279;DHT22;70683;52.492;13.416;2024-03-02T15:17:51;15.90;65.70